Time;durP1;ratioP1;P1;durP2;ratioP2;P2;SDS_P1;SDS_P2;PMS_P1;PMS_P2;Temp;Humidity;BMP_temperature;BMP_pressure;BME280_temperature;BME280_humidity;BME280_pressure;Samples;Min_cycle;Max_cycle;Signal;HPM_P1;HPM_P2
2021/07/29 00:01:50;;;;;;;2.17;1.25;;;21.50;63.30;;;;;;9977385;28;20049;-55
2021/07/29 00:06:41;;;;;;;2.80;1.00;;;21.50;63.30;;;;;;9978469;28;20460;-58
2021/07/29 00:11:32;;;;;;;2.13;1.05;;;21.50;63.50;;;;;;9975276;28;20023;-56
2021/07/29 00:16:24;;;;;;;2.05;1.20;;;21.50;63.60;;;;;;9952634;28;20057;-57
2021/07/29 00:21:15;;;;;;;2.58;1.52;;;21.40;63.90;;;;;;9941913;28;20593;-57
2021/07/29 00:26:09;;;;;;;2.72;1.25;;;21.50;64.10;;;;;;9939948;28;20026;-55
2021/07/29 00:31:00;;;;;;;1.48;0.90;;;21.50;64.20;;;;;;9949889;28;20035;-55
2021/07/29 00:35:50;;;;;;;1.67;1.00;;;21.40;64.30;;;;;;9976554;28;20034;-57
2021/07/29 00:40:41;;;;;;;2.90;1.23;;;21.50;64.40;;;;;;9936627;28;20531;-57
2021/07/29 00:45:31;;;;;;;2.17;0.90;;;21.40;64.50;;;;;;9937786;28;20089;-56
2021/07/29 00:50:23;;;;;;;2.65;1.27;;;21.30;64.80;;;;;;9948851;28;20041;-55
2021/07/29 00:55:14;;;;;;;2.75;1.20;;;21.30;64.90;;;;;;9976181;28;20484;-57
2021/07/29 01:00:06;;;;;;;1.77;1.50;;;21.30;64.90;;;;;;9972833;28;20043;-58
2021/07/29 01:04:57;;;;;;;2.60;1.67;;;21.20;65.30;;;;;;9958325;28;20121;-55
2021/07/29 01:09:47;;;;;;;3.78;1.90;;;21.20;65.10;;;;;;9976472;28;20066;-54
2021/07/29 01:14:38;;;;;;;5.45;1.92;;;21.20;65.50;;;;;;9971464;28;20617;-55
2021/07/29 01:19:29;;;;;;;3.55;1.73;;;21.10;65.70;;;;;;9954310;28;20043;-59
2021/07/29 01:24:20;;;;;;;2.75;1.80;;;21.10;65.90;;;;;;9975000;28;20026;-55
2021/07/29 01:29:11;;;;;;;1.75;1.45;;;21.00;65.90;;;;;;9968828;28;20189;-58
2021/07/29 01:34:02;;;;;;;1.77;1.30;;;21.00;66.00;;;;;;9946558;28;20265;-56
2021/07/29 01:38:53;;;;;;;2.45;1.42;;;20.90;66.30;;;;;;9942941;28;20061;-57
2021/07/29 01:43:43;;;;;;;3.13;2.22;;;20.90;66.30;;;;;;9952847;28;20038;-56
2021/07/29 01:48:34;;;;;;;2.47;1.40;;;20.90;66.40;;;;;;9981315;28;20435;-55
2021/07/29 01:53:25;;;;;;;1.60;1.20;;;20.90;66.50;;;;;;9983077;28;20453;-55
2021/07/29 01:58:17;;;;;;;2.30;1.58;;;20.90;66.50;;;;;;9981227;28;20054;-59
2021/07/29 02:03:07;;;;;;;3.45;1.85;;;20.80;66.80;;;;;;9955195;28;20409;-56
2021/07/29 02:07:59;;;;;;;5.95;2.47;;;20.80;67.00;;;;;;9942927;28;20031;-61
2021/07/29 02:12:50;;;;;;;2.83;1.45;;;20.70;67.00;;;;;;9943753;28;20035;-57
2021/07/29 02:17:41;;;;;;;2.08;1.52;;;20.70;67.30;;;;;;9973064;28;20043;-57
2021/07/29 02:22:31;;;;;;;8.40;1.55;;;20.70;67.40;;;;;;9981542;28;20488;-56
2021/07/29 02:27:24;;;;;;;1.67;1.15;;;20.70;67.40;;;;;;9956001;28;20097;-57
2021/07/29 02:32:14;;;;;;;2.33;1.50;;;20.70;67.60;;;;;;9961841;28;20585;-57
2021/07/29 02:37:05;;;;;;;1.70;1.25;;;20.70;67.80;;;;;;9964357;28;20166;-59
2021/07/29 02:41:55;;;;;;;2.03;1.55;;;20.60;67.90;;;;;;9980553;28;20039;-58
2021/07/29 02:46:46;;;;;;;2.92;1.42;;;20.50;68.40;;;;;;9943444;28;20389;-55
2021/07/29 02:51:36;;;;;;;2.60;2.20;;;20.50;68.60;;;;;;9941766;28;20061;-56
2021/07/29 02:56:27;;;;;;;3.00;2.08;;;20.40;68.90;;;;;;9941199;28;20027;-57
2021/07/29 03:01:18;;;;;;;2.72;1.85;;;20.40;68.90;;;;;;9952921;28;20085;-58
2021/07/29 03:06:08;;;;;;;3.42;1.83;;;20.30;69.40;;;;;;9977374;28;20038;-59
2021/07/29 03:10:59;;;;;;;2.53;1.65;;;20.40;69.30;;;;;;9973738;28;20031;-57
2021/07/29 03:15:50;;;;;;;5.05;1.67;;;20.40;69.40;;;;;;9941478;28;20031;-57
2021/07/29 03:20:41;;;;;;;3.15;1.70;;;20.30;69.70;;;;;;9972393;28;20086;-62
2021/07/29 03:25:33;;;;;;;5.05;1.30;;;20.30;69.80;;;;;;9978325;28;20138;-56
2021/07/29 03:30:24;;;;;;;3.90;1.48;;;20.30;69.80;;;;;;9974922;28;20031;-56
2021/07/29 03:35:15;;;;;;;4.00;1.50;;;20.20;70.10;;;;;;9968524;28;20030;-57
2021/07/29 03:40:06;;;;;;;2.10;1.17;;;20.20;70.30;;;;;;9969962;28;20042;-54
2021/07/29 03:44:57;;;;;;;4.30;1.83;;;20.20;70.40;;;;;;9941138;28;20513;-54
2021/07/29 03:49:48;;;;;;;4.38;1.77;;;20.10;70.60;;;;;;9940236;28;20504;-58
2021/07/29 03:54:38;;;;;;;2.28;1.45;;;20.20;70.50;;;;;;9965591;28;20104;-57
2021/07/29 03:59:29;;;;;;;3.60;1.40;;;20.10;70.70;;;;;;9978337;28;20114;-57
2021/07/29 04:04:20;;;;;;;2.67;1.77;;;19.90;71.00;;;;;;9942106;28;20027;-57
2021/07/29 04:09:10;;;;;;;2.97;2.05;;;19.90;71.20;;;;;;9944745;28;20038;-60
2021/07/29 04:14:01;;;;;;;2.20;1.60;;;19.90;71.20;;;;;;9956061;28;20416;-61
2021/07/29 04:18:52;;;;;;;2.78;1.45;;;19.80;71.50;;;;;;9974849;28;20050;-54
2021/07/29 04:23:43;;;;;;;2.92;1.80;;;19.80;71.60;;;;;;9972436;28;20023;-54
2021/07/29 04:28:33;;;;;;;3.40;2.05;;;19.60;72.00;;;;;;9952972;28;20037;-57
2021/07/29 04:33:24;;;;;;;3.78;2.15;;;19.60;72.40;;;;;;9937985;28;20030;-57
2021/07/29 04:38:15;;;;;;;2.50;1.42;;;19.70;72.20;;;;;;9938369;28;20054;-54
2021/07/29 04:43:05;;;;;;;2.42;1.85;;;19.60;72.30;;;;;;9946416;28;20018;-58
2021/07/29 04:47:56;;;;;;;5.10;1.52;;;19.50;72.60;;;;;;9974784;28;20122;-54
2021/07/29 04:52:50;;;;;;;3.40;1.52;;;19.50;72.80;;;;;;9952950;28;20070;-54
2021/07/29 04:57:40;;;;;;;2.20;1.20;;;19.50;72.80;;;;;;9937656;28;20133;-54
2021/07/29 05:02:31;;;;;;;2.15;1.55;;;19.50;72.60;;;;;;9962025;28;20034;-57
2021/07/29 05:07:22;;;;;;;2.45;1.60;;;19.50;72.70;;;;;;9973081;28;20088;-55
2021/07/29 05:12:12;;;;;;;3.80;1.50;;;19.60;72.70;;;;;;9974260;28;20023;-56
2021/07/29 05:17:04;;;;;;;3.00;1.38;;;19.60;72.60;;;;;;9957553;28;20409;-55
2021/07/29 05:21:55;;;;;;;3.13;1.83;;;19.60;72.60;;;;;;9936687;28;20412;-57
2021/07/29 05:26:46;;;;;;;4.20;1.92;;;19.60;72.60;;;;;;9936838;28;20031;-56
2021/07/29 05:31:41;;;;;;;1.88;1.20;;;19.60;72.70;;;;;;9966589;28;20045;-58
2021/07/29 05:36:31;;;;;;;2.38;1.67;;;19.60;72.70;;;;;;9971616;28;20357;-56
2021/07/29 05:41:22;;;;;;;2.65;1.55;;;19.60;72.80;;;;;;9955132;28;20122;-56
2021/07/29 05:46:13;;;;;;;3.17;1.60;;;19.70;72.50;;;;;;9968623;28;20030;-56
2021/07/29 05:51:04;;;;;;;1.92;1.60;;;19.90;72.20;;;;;;9945544;28;20572;-52
2021/07/29 05:55:55;;;;;;;2.38;1.50;;;19.90;72.10;;;;;;9936164;28;20127;-53
2021/07/29 06:00:46;;;;;;;4.63;1.58;;;20.00;71.60;;;;;;9956281;28;20046;-57
2021/07/29 06:05:37;;;;;;;2.88;1.80;;;20.00;71.60;;;;;;9935828;28;20125;-56
2021/07/29 06:10:27;;;;;;;3.72;1.73;;;20.00;71.70;;;;;;9950136;28;20034;-58
2021/07/29 06:15:18;;;;;;;2.58;1.67;;;20.10;71.50;;;;;;9971501;28;20058;-57
2021/07/29 06:20:09;;;;;;;2.28;1.60;;;20.20;71.20;;;;;;9974453;28;20042;-54
2021/07/29 06:25:04;;;;;;;1.77;1.58;;;20.30;71.60;;;;;;9969526;28;20031;-57
2021/07/29 06:29:55;;;;;;;3.95;1.50;;;20.40;70.70;;;;;;9958272;28;20452;-55
2021/07/29 06:34:45;;;;;;;2.55;1.70;;;20.60;70.20;;;;;;9981618;28;20105;-56
2021/07/29 06:39:36;;;;;;;2.33;1.75;;;20.70;69.90;;;;;;9980222;28;20085;-55
2021/07/29 06:44:27;;;;;;;2.75;1.65;;;20.90;69.20;;;;;;9967494;28;20025;-55
2021/07/29 06:49:18;;;;;;;3.00;1.27;;;21.00;68.60;;;;;;9979255;28;20057;-60
2021/07/29 06:54:09;;;;;;;2.50;1.70;;;21.10;67.90;;;;;;9962561;28;20045;-58
2021/07/29 06:58:59;;;;;;;2.40;1.73;;;21.30;67.10;;;;;;9941314;28;20492;-57
2021/07/29 07:03:50;;;;;;;2.85;1.80;;;21.30;66.50;;;;;;9965496;28;20420;-54
2021/07/29 07:08:41;;;;;;;5.32;1.77;;;21.60;65.70;;;;;;9981090;28;20488;-53
2021/07/29 07:13:32;;;;;;;3.03;1.60;;;21.70;65.00;;;;;;9949797;28;20027;-58
2021/07/29 07:18:22;;;;;;;2.72;1.52;;;21.80;64.20;;;;;;9966431;28;20038;-55
2021/07/29 07:23:13;;;;;;;2.65;1.33;;;21.90;63.20;;;;;;9980797;28;20453;-58
2021/07/29 07:28:04;;;;;;;1.65;1.42;;;22.00;62.50;;;;;;9978559;28;20026;-56
2021/07/29 07:32:55;;;;;;;3.97;1.95;;;22.10;61.60;;;;;;9979216;28;20471;-56
2021/07/29 07:37:46;;;;;;;3.08;1.35;;;22.10;62.10;;;;;;9976855;28;20129;-58
2021/07/29 07:42:37;;;;;;;2.65;1.20;;;22.40;60.90;;;;;;9978059;28;20121;-55
2021/07/29 07:47:29;;;;;;;4.00;1.88;;;22.50;60.30;;;;;;9974203;28;20448;-54
2021/07/29 07:52:19;;;;;;;2.47;1.30;;;22.80;59.90;;;;;;9939534;28;20027;-54
2021/07/29 07:57:10;;;;;;;5.18;1.30;;;23.00;59.50;;;;;;9940703;28;20034;-57
2021/07/29 08:02:00;;;;;;;1.98;1.42;;;23.10;59.20;;;;;;9939302;28;20034;-57
2021/07/29 08:06:51;;;;;;;3.90;1.60;;;23.30;58.80;;;;;;9939030;28;20546;-57
2021/07/29 08:11:41;;;;;;;2.63;1.45;;;23.60;58.70;;;;;;9963310;28;20041;-57
2021/07/29 08:16:34;;;;;;;1.75;1.48;;;23.70;58.40;;;;;;9958958;28;20453;-58
2021/07/29 08:21:25;;;;;;;2.17;1.20;;;23.60;58.20;;;;;;9946705;28;20030;-53
2021/07/29 08:26:16;;;;;;;1.70;1.42;;;23.40;58.00;;;;;;9946591;28;20033;-52
2021/07/29 08:31:09;;;;;;;2.72;1.60;;;23.20;58.10;;;;;;9938112;28;20150;-55
2021/07/29 08:36:00;;;;;;;3.88;1.48;;;23.30;57.10;;;;;;9938317;28;20046;-57
2021/07/29 08:40:54;;;;;;;3.63;1.60;;;23.40;56.60;;;;;;9938716;28;20367;-57
2021/07/29 08:45:47;;;;;;;1.95;1.30;;;23.50;56.80;;;;;;9939181;28;20022;-55
2021/07/29 08:50:38;;;;;;;2.30;1.52;;;23.50;56.00;;;;;;9937658;28;20115;-58
2021/07/29 08:55:30;;;;;;;2.63;1.65;;;23.60;56.30;;;;;;9960551;28;20133;-60
2021/07/29 09:00:20;;;;;;;2.72;1.30;;;23.40;55.40;;;;;;9973770;28;20049;-58
2021/07/29 09:05:21;;;;;;;5.20;2.22;;;23.40;55.20;;;;;;9963043;28;20061;-57
2021/07/29 09:10:24;;;;;;;3.58;1.52;;;23.20;54.40;;;;;;9950466;28;20231;-58
2021/07/29 09:15:20;;;;;;;2.20;1.58;;;23.10;53.70;;;;;;9973255;28;20511;-54
2021/07/29 09:20:17;;;;;;;2.35;2.00;;;22.80;53.80;;;;;;9975221;28;20038;-55
2021/07/29 09:25:10;;;;;;;3.80;2.03;;;22.80;52.80;;;;;;9973939;28;20039;-58
2021/07/29 09:30:21;;;;;;;2.72;1.40;;;22.80;52.90;;;;;;9975811;28;20064;-54
2021/07/29 09:35:12;;;;;;;2.03;1.52;;;22.90;52.30;;;;;;9970249;28;20317;-55
2021/07/29 09:40:03;;;;;;;2.53;1.58;;;23.10;52.40;;;;;;9936060;28;20413;-56
2021/07/29 09:44:55;;;;;;;2.55;1.83;;;23.00;52.10;;;;;;9957784;28;20030;-58
2021/07/29 09:49:46;;;;;;;2.47;1.40;;;22.90;51.80;;;;;;9981038;28;20045;-56
2021/07/29 09:54:40;;;;;;;3.15;1.48;;;23.10;51.40;;;;;;9974184;28;20097;-56
2021/07/29 09:59:32;;;;;;;4.25;1.75;;;23.30;51.20;;;;;;9972915;28;20046;-57
2021/07/29 10:04:30;;;;;;;2.53;1.63;;;23.40;50.70;;;;;;9973328;28;20063;-57
2021/07/29 10:09:22;;;;;;;2.35;1.80;;;23.30;50.70;;;;;;9996624;28;20027;-57
2021/07/29 10:14:13;;;;;;;2.50;1.75;;;23.40;50.70;;;;;;9975857;28;20110;-56
2021/07/29 10:19:05;;;;;;;2.40;1.70;;;23.50;50.40;;;;;;9990159;28;20129;-57
2021/07/29 10:23:58;;;;;;;2.42;1.77;;;23.50;49.90;;;;;;9986185;28;20022;-55
2021/07/29 10:28:49;;;;;;;3.08;1.90;;;23.60;49.80;;;;;;9968205;28;20360;-58
2021/07/29 10:33:41;;;;;;;1.95;1.70;;;23.90;49.50;;;;;;9988467;28;20333;-59
2021/07/29 10:38:43;;;;;;;2.20;1.60;;;24.00;49.20;;;;;;9988300;28;20335;-61
2021/07/29 10:43:40;;;;;;;3.78;1.77;;;24.20;48.60;;;;;;9991589;28;20061;-55
2021/07/29 10:48:50;;;;;;;3.35;2.25;;;24.30;48.50;;;;;;9981602;28;20523;-55
2021/07/29 10:53:52;;;;;;;4.22;1.50;;;24.40;48.20;;;;;;9969570;28;20062;-56
2021/07/29 10:58:48;;;;;;;4.60;1.90;;;24.50;48.50;;;;;;9985498;28;20081;-58
2021/07/29 11:03:46;;;;;;;4.30;1.65;;;24.60;48.10;;;;;;9979467;28;20263;-56
2021/07/29 11:08:36;;;;;;;2.55;1.70;;;24.50;47.90;;;;;;9991569;28;20064;-56
2021/07/29 11:13:31;;;;;;;3.00;2.28;;;24.60;47.90;;;;;;9978914;28;20088;-56
2021/07/29 11:18:23;;;;;;;2.42;1.60;;;24.50;48.10;;;;;;9978091;28;20129;-58
2021/07/29 11:23:14;;;;;;;3.42;1.70;;;24.60;47.80;;;;;;9973730;28;20069;-55
2021/07/29 11:28:14;;;;;;;4.18;1.70;;;24.60;48.20;;;;;;9991163;28;20026;-58
2021/07/29 11:33:05;;;;;;;2.90;1.60;;;24.80;46.90;;;;;;9976195;28;20034;-56
2021/07/29 11:37:56;;;;;;;2.78;1.60;;;25.20;47.00;;;;;;9990690;28;20532;-55
2021/07/29 11:42:47;;;;;;;3.58;1.40;;;25.50;46.70;;;;;;9987933;28;20037;-58
2021/07/29 11:47:38;;;;;;;2.15;1.33;;;25.20;46.70;;;;;;9991097;28;20022;-55
2021/07/29 11:52:29;;;;;;;1.80;1.50;;;25.00;46.70;;;;;;9971367;28;20041;-53
2021/07/29 11:57:29;;;;;;;3.20;1.70;;;24.80;46.70;;;;;;9976607;28;20041;-55
2021/07/29 12:02:21;;;;;;;3.67;1.60;;;24.90;46.20;;;;;;9988500;28;20104;-58
2021/07/29 12:07:15;;;;;;;2.88;1.42;;;24.70;46.20;;;;;;9997696;28;20054;-55
2021/07/29 12:12:06;;;;;;;2.63;1.60;;;24.90;46.10;;;;;;9973212;28;20073;-56
2021/07/29 12:16:56;;;;;;;2.22;1.80;;;25.30;45.30;;;;;;9972642;28;20128;-55
2021/07/29 12:21:49;;;;;;;3.33;1.50;;;25.70;44.70;;;;;;9996325;28;20113;-54
2021/07/29 12:26:41;;;;;;;2.88;1.48;;;26.20;44.60;;;;;;9959003;28;20035;-55
2021/07/29 12:31:32;;;;;;;2.28;1.50;;;26.70;44.40;;;;;;9993510;28;20400;-57
2021/07/29 12:36:25;;;;;;;3.58;1.60;;;26.90;44.50;;;;;;9971015;28;20057;-58
2021/07/29 12:41:29;;;;;;;1.48;1.13;;;27.20;44.40;;;;;;9978792;28;20057;-58
2021/07/29 12:46:21;;;;;;;2.65;1.52;;;27.40;44.20;;;;;;9962122;28;20034;-59
2021/07/29 12:51:44;;;;;;;3.67;1.38;;;27.90;44.20;;;;;;9970290;28;20045;-58
2021/07/29 12:56:35;;;;;;;2.45;1.45;;;28.00;42.20;;;;;;9967860;28;20038;-58
2021/07/29 13:01:26;;;;;;;2.22;1.48;;;28.30;43.60;;;;;;9985648;28;20487;-59
2021/07/29 13:06:18;;;;;;;2.50;1.77;;;28.90;42.60;;;;;;9962432;28;20030;-61
2021/07/29 13:11:09;;;;;;;3.80;2.20;;;30.70;41.60;;;;;;9990439;28;20034;-61
2021/07/29 13:16:00;;;;;;;2.40;1.30;;;31.50;39.60;;;;;;9945921;28;20114;-60
2021/07/29 13:20:52;;;;;;;1.70;1.30;;;31.70;38.40;;;;;;9954964;28;20043;-63
2021/07/29 13:25:46;;;;;;;3.00;1.60;;;32.10;37.20;;;;;;9974865;28;20032;-60
2021/07/29 13:30:37;;;;;;;4.22;1.52;;;32.50;36.30;;;;;;9981747;28;20018;-60
2021/07/29 13:35:28;;;;;;;1.90;1.60;;;33.50;35.60;;;;;;9992227;28;20573;-59
2021/07/29 13:40:18;;;;;;;2.30;1.47;;;34.10;34.80;;;;;;9985655;28;20096;-60
2021/07/29 13:45:16;;;;;;;1.60;1.30;;;35.00;34.20;;;;;;9971571;28;20050;-62
2021/07/29 13:50:07;;;;;;;3.15;1.20;;;35.00;33.60;;;;;;9964231;28;20146;-61
2021/07/29 13:54:58;;;;;;;2.40;1.77;;;35.90;32.80;;;;;;9976136;28;20026;-64
2021/07/29 13:59:48;;;;;;;2.27;1.50;;;36.10;32.10;;;;;;9995364;28;20045;-59
2021/07/29 14:04:39;;;;;;;1.80;1.60;;;36.70;31.70;;;;;;10001529;28;20281;-61
2021/07/29 14:09:31;;;;;;;;;;;37.20;31.60;;;;;;9997802;28;20043;-63
2021/07/29 14:14:21;;;;;;;2.25;1.45;;;36.70;31.40;;;;;;9984347;28;19914;-60
2021/07/29 14:19:13;;;;;;;;;;;36.80;31.90;;;;;;9986541;28;20046;-59
2021/07/29 14:24:04;;;;;;;3.20;2.20;;;36.40;31.60;;;;;;9979353;28;20231;-62
2021/07/29 14:28:54;;;;;;;3.67;1.70;;;35.50;32.70;;;;;;9958308;28;20101;-62
2021/07/29 14:33:45;;;;;;;1.50;1.40;;;35.60;31.60;;;;;;9942199;28;20039;-62
2021/07/29 14:38:36;;;;;;;2.03;1.50;;;35.00;31.30;;;;;;9948167;28;20582;-61
2021/07/29 14:43:28;;;;;;;2.33;1.80;;;35.30;31.10;;;;;;9979633;28;20034;-59
2021/07/29 14:53:28;;;;;;;3.65;2.40;;;36.50;30.00;;;;;;9994725;28;20126;-59
2021/07/29 15:19:35;;;;;;;2.10;1.60;;;34.40;30.40;;;;;;9967490;28;20046;-59
2021/07/29 16:10:45;;;;;;;2.50;2.15;;;36.00;28.80;;;;;;9966665;28;20579;-60
2021/07/29 16:15:35;;;;;;;2.10;1.90;;;36.40;28.60;;;;;;9973620;28;20674;-60
2021/07/29 16:20:26;;;;;;;2.87;2.50;;;37.70;27.90;;;;;;9971510;28;20477;-61
2021/07/29 16:25:17;;;;;;;3.70;2.53;;;37.40;28.10;;;;;;9966111;28;20100;-63
2021/07/29 16:30:07;;;;;;;3.23;1.70;;;36.50;28.00;;;;;;9960743;28;20108;-62
2021/07/29 16:34:58;;;;;;;4.53;2.00;;;37.60;27.90;;;;;;9965005;28;20030;-62
2021/07/29 16:39:49;;;;;;;3.22;1.85;;;38.60;27.70;;;;;;9962031;28;20046;-62
2021/07/29 16:44:39;;;;;;;1.88;1.65;;;38.80;27.20;;;;;;9966147;28;20057;-61
2021/07/29 16:49:30;;;;;;;2.03;1.80;;;39.10;26.80;;;;;;9957995;28;20033;-62
2021/07/29 16:54:21;;;;;;;2.22;1.80;;;39.40;26.80;;;;;;9963487;28;20158;-61
2021/07/29 16:59:12;;;;;;;2.08;1.65;;;38.70;26.90;;;;;;9960442;28;20520;-60
2021/07/29 17:04:03;;;;;;;1.50;1.40;;;38.00;27.30;;;;;;9962032;28;20034;-60
2021/07/29 17:08:53;;;;;;;2.17;1.65;;;38.00;27.10;;;;;;9961994;28;20245;-61
2021/07/29 17:13:44;;;;;;;4.13;1.80;;;39.10;26.10;;;;;;9969754;28;20559;-61
2021/07/29 17:18:35;;;;;;;2.35;1.92;;;39.30;26.00;;;;;;9968266;28;20285;-61
2021/07/29 17:23:26;;;;;;;3.87;2.10;;;38.70;26.60;;;;;;9968743;28;20080;-60
2021/07/29 17:28:16;;;;;;;1.83;1.60;;;37.50;27.10;;;;;;9965434;28;20076;-61
2021/07/29 17:33:07;;;;;;;1.90;1.50;;;37.00;27.70;;;;;;9962285;28;20377;-64
2021/07/29 17:37:58;;;;;;;2.45;1.50;;;36.20;28.10;;;;;;9958973;28;20042;-60
2021/07/29 17:42:50;;;;;;;1.95;1.38;;;31.70;31.20;;;;;;9963737;28;20555;-61
2021/07/29 17:47:41;;;;;;;3.90;2.33;;;30.90;32.10;;;;;;9957701;28;20050;-62
2021/07/29 17:52:32;;;;;;;3.08;2.08;;;31.70;31.00;;;;;;9963115;28;20037;-60
2021/07/29 17:57:22;;;;;;;3.85;1.77;;;29.80;32.90;;;;;;9959671;28;20041;-59
2021/07/29 18:02:13;;;;;;;2.58;1.77;;;28.80;34.50;;;;;;9971293;28;20038;-59
2021/07/29 18:07:04;;;;;;;2.20;1.67;;;28.30;35.10;;;;;;9961938;28;20504;-60
2021/07/29 18:11:54;;;;;;;2.80;2.17;;;27.90;35.60;;;;;;9962566;28;20450;-60
2021/07/29 18:16:45;;;;;;;3.20;1.77;;;27.60;36.30;;;;;;9961708;28;20501;-60
2021/07/29 18:21:36;;;;;;;3.03;1.95;;;27.70;36.10;;;;;;9963011;28;20052;-59
2021/07/29 18:26:27;;;;;;;2.70;1.80;;;27.40;36.90;;;;;;9974510;28;20113;-58
2021/07/29 18:31:18;;;;;;;2.65;1.70;;;27.40;36.80;;;;;;9969988;28;20427;-58
2021/07/29 18:36:09;;;;;;;5.05;2.75;;;27.10;37.20;;;;;;9968852;28;20030;-58
2021/07/29 18:41:00;;;;;;;2.88;2.03;;;27.00;37.50;;;;;;9963482;28;20046;-59
2021/07/29 18:45:52;;;;;;;2.30;1.73;;;27.00;38.00;;;;;;9974917;28;20420;-59
2021/07/29 18:50:43;;;;;;;3.47;1.80;;;27.10;38.30;;;;;;9972336;28;20057;-62
2021/07/29 18:55:34;;;;;;;4.93;2.08;;;27.00;38.20;;;;;;9974005;28;20022;-61
2021/07/29 19:00:25;;;;;;;2.63;1.52;;;26.60;39.00;;;;;;9967187;28;20066;-62
2021/07/29 19:05:15;;;;;;;2.85;1.77;;;26.80;38.90;;;;;;9970854;28;20022;-61
2021/07/29 19:10:08;;;;;;;4.05;2.45;;;26.70;39.00;;;;;;9985015;28;20089;-60
2021/07/29 19:14:58;;;;;;;3.65;2.13;;;26.50;39.50;;;;;;9963938;28;20018;-62
2021/07/29 19:19:49;;;;;;;4.05;2.20;;;26.30;39.70;;;;;;9979266;28;20045;-59
2021/07/29 19:24:40;;;;;;;5.25;2.03;;;26.40;40.00;;;;;;9975558;28;20162;-60
2021/07/29 19:29:32;;;;;;;2.08;1.85;;;26.30;39.80;;;;;;9970176;28;20393;-59
2021/07/29 19:34:23;;;;;;;7.50;2.85;;;26.10;40.30;;;;;;9961642;28;20027;-59
2021/07/29 19:39:14;;;;;;;2.85;1.75;;;26.10;40.30;;;;;;9972826;28;20048;-60
2021/07/29 19:44:05;;;;;;;3.72;2.08;;;25.70;41.10;;;;;;9965847;28;20133;-60
2021/07/29 19:48:55;;;;;;;2.65;1.73;;;25.70;41.00;;;;;;9966610;28;20116;-62
2021/07/29 19:53:46;;;;;;;4.53;2.20;;;25.80;41.10;;;;;;9975614;28;20065;-59
2021/07/29 19:58:36;;;;;;;3.28;1.90;;;26.00;41.00;;;;;;9971897;28;20413;-58
2021/07/29 20:03:30;;;;;;;4.40;1.77;;;25.90;41.10;;;;;;9970330;28;20451;-59
2021/07/29 20:08:21;;;;;;;3.27;1.97;;;25.80;41.40;;;;;;9975673;28;20022;-60
2021/07/29 20:13:12;;;;;;;3.72;2.28;;;25.80;41.60;;;;;;9975223;28;20290;-60
2021/07/29 20:18:03;;;;;;;3.42;1.55;;;25.70;41.80;;;;;;9973584;28;20027;-59
2021/07/29 20:22:53;;;;;;;2.85;1.40;;;25.80;41.90;;;;;;9973095;28;20037;-59
2021/07/29 20:27:44;;;;;;;2.17;1.42;;;25.70;42.10;;;;;;9968511;28;20117;-59
2021/07/29 20:32:35;;;;;;;2.53;1.92;;;25.80;42.00;;;;;;9963128;28;20037;-62
2021/07/29 20:37:26;;;;;;;6.05;1.70;;;25.60;42.00;;;;;;9965383;28;20048;-59
2021/07/29 20:42:17;;;;;;;4.65;2.72;;;25.60;42.20;;;;;;9966473;28;20046;-59
2021/07/29 20:47:07;;;;;;;4.85;2.60;;;25.40;42.40;;;;;;9965866;28;20033;-60
2021/07/29 20:51:58;;;;;;;3.10;2.10;;;25.40;42.60;;;;;;9963667;28;20484;-60
2021/07/29 20:56:49;;;;;;;2.47;1.73;;;25.20;43.10;;;;;;9966017;28;20599;-59
2021/07/29 21:01:39;;;;;;;2.85;1.58;;;25.10;43.50;;;;;;9956556;28;20247;-61
2021/07/29 21:06:30;;;;;;;2.20;1.67;;;25.10;43.60;;;;;;9961062;28;20397;-66
2021/07/29 21:11:21;;;;;;;4.63;1.90;;;25.10;43.70;;;;;;9956033;28;20405;-66
2021/07/29 21:16:11;;;;;;;3.35;1.73;;;25.00;44.10;;;;;;9957533;28;20038;-64
2021/07/29 21:21:02;;;;;;;3.70;2.08;;;24.90;44.20;;;;;;9958126;28;20057;-66
2021/07/29 21:25:53;;;;;;;5.63;1.92;;;24.90;44.30;;;;;;9954789;28;20122;-65
2021/07/29 21:30:43;;;;;;;1.77;1.55;;;24.90;44.60;;;;;;9958388;28;20034;-66
2021/07/29 21:35:34;;;;;;;2.88;1.90;;;25.00;44.50;;;;;;9953322;28;20409;-63
2021/07/29 21:40:25;;;;;;;3.00;2.03;;;24.90;44.60;;;;;;9959618;28;20331;-65
2021/07/29 21:45:16;;;;;;;4.70;1.95;;;24.80;45.10;;;;;;9955481;28;20030;-63
2021/07/29 21:50:07;;;;;;;3.30;2.28;;;24.90;45.20;;;;;;9959012;28;20468;-65
2021/07/29 21:54:57;;;;;;;4.00;2.47;;;24.90;45.20;;;;;;9958545;28;20022;-64
2021/07/29 21:59:48;;;;;;;4.50;1.95;;;24.80;45.40;;;;;;9958588;28;20035;-64
2021/07/29 22:04:39;;;;;;;3.90;1.88;;;24.60;45.90;;;;;;9966205;28;20046;-63
2021/07/29 22:09:29;;;;;;;3.72;1.90;;;24.50;46.00;;;;;;9959937;28;20034;-65
2021/07/29 22:14:20;;;;;;;3.20;1.77;;;24.40;46.20;;;;;;9965329;28;20023;-66
2021/07/29 22:19:11;;;;;;;2.25;1.35;;;24.40;46.30;;;;;;9956824;28;20512;-62
2021/07/29 22:24:01;;;;;;;5.38;2.25;;;24.40;46.30;;;;;;9975551;28;20041;-62
2021/07/29 22:28:52;;;;;;;2.95;1.63;;;24.30;46.30;;;;;;9977077;28;20198;-63
2021/07/29 22:33:42;;;;;;;3.80;1.90;;;24.20;46.40;;;;;;9986031;28;20048;-66
2021/07/29 22:38:36;;;;;;;6.22;1.83;;;24.10;46.60;;;;;;9975613;28;20118;-61
2021/07/29 22:43:27;;;;;;;4.80;3.05;;;24.20;46.60;;;;;;9987884;28;20037;-61
2021/07/29 22:48:17;;;;;;;4.35;1.92;;;24.10;46.80;;;;;;9988733;28;20041;-63
2021/07/29 22:53:08;;;;;;;3.35;1.95;;;24.00;46.90;;;;;;9985442;28;20234;-62
2021/07/29 22:57:59;;;;;;;2.17;1.75;;;23.80;47.50;;;;;;9984644;28;20085;-62
2021/07/29 23:02:49;;;;;;;4.50;2.47;;;23.80;47.40;;;;;;9987946;28;20124;-61
2021/07/29 23:07:40;;;;;;;3.15;2.10;;;23.40;48.20;;;;;;9993555;28;20034;-63
2021/07/29 23:12:31;;;;;;;4.32;1.98;;;23.10;48.70;;;;;;9986688;28;20058;-63
2021/07/29 23:17:21;;;;;;;2.78;1.60;;;23.20;48.80;;;;;;10028879;28;20034;-62
2021/07/29 23:22:13;;;;;;;5.50;2.28;;;23.10;49.40;;;;;;10021274;28;20054;-62
2021/07/29 23:32:13;;;;;;;4.32;2.00;;;23.10;49.60;;;;;;9999666;28;20037;-62
2021/07/29 23:37:04;;;;;;;3.85;1.90;;;23.00;49.70;;;;;;10009562;28;20024;-63
2021/07/29 23:41:54;;;;;;;4.75;1.48;;;22.80;50.10;;;;;;9997997;28;20045;-63
2021/07/29 23:46:45;;;;;;;3.65;1.85;;;22.70;50.30;;;;;;10006569;28;20373;-64
2021/07/29 23:51:36;;;;;;;2.15;1.45;;;22.60;50.60;;;;;;10009716;28;20076;-63
2021/07/29 23:56:27;;;;;;;4.18;1.70;;;22.80;50.60;;;;;;10011083;28;20562;-63
